createdAt,value
2022-11-29T00:00:20.366Z,81.80
2022-11-29T00:00:52.665Z,81.66
2022-11-29T00:01:29.016Z,81.48
2022-11-29T00:02:01.203Z,81.50
2022-11-29T00:02:36.083Z,81.56
2022-11-29T00:03:08.355Z,81.37
2022-11-29T00:03:40.522Z,81.81
2022-11-29T00:04:15.171Z,81.50
2022-11-29T00:04:47.297Z,81.89
2022-11-29T00:05:19.380Z,81.98
2022-11-29T00:05:54.362Z,81.88
2022-11-29T00:06:28.148Z,81.82
2022-11-29T00:07:02.824Z,81.69
2022-11-29T00:07:34.945Z,81.88
2022-11-29T00:08:07.179Z,81.81
2022-11-29T00:08:41.340Z,82.10
2022-11-29T00:09:16.440Z,81.60
2022-11-29T00:09:48.517Z,81.90
2022-11-29T00:10:20.610Z,81.64
2022-11-29T00:10:55.296Z,81.94
2022-11-29T00:11:44.669Z,81.88
2022-11-29T00:12:16.809Z,81.76
2022-11-29T00:12:51.533Z,81.97
2022-11-29T00:13:26.230Z,81.90
2022-11-29T00:13:58.285Z,82.02
2022-11-29T00:14:32.965Z,82.00
2022-11-29T00:15:05.751Z,82.13
2022-11-29T00:15:38.589Z,81.67
2022-11-29T00:16:14.864Z,81.74
2022-11-29T00:16:51.110Z,81.80
2022-11-29T00:17:23.277Z,82.04
2022-11-29T00:17:57.947Z,82.00
2022-11-29T00:18:30.029Z,81.70
2022-11-29T00:19:02.725Z,81.92
2022-11-29T00:19:38.878Z,81.49
2022-11-29T00:20:12.373Z,81.50
2022-11-29T00:20:44.452Z,81.81
2022-11-29T00:21:19.125Z,81.40
2022-11-29T00:21:51.384Z,81.42
2022-11-29T00:22:25.255Z,81.44
2022-11-29T00:22:59.931Z,81.44
2022-11-29T00:23:32.049Z,81.16
2022-11-29T00:24:04.549Z,81.31
2022-11-29T00:24:39.303Z,81.49
2022-11-29T00:25:11.418Z,81.60
2022-11-29T00:25:43.479Z,81.28
2022-11-29T00:26:15.554Z,81.15
2022-11-29T00:26:50.277Z,81.08
2022-11-29T00:27:22.382Z,81.23
2022-11-29T00:27:57.500Z,81.11
2022-11-29T00:28:32.182Z,81.04
2022-11-29T00:29:04.424Z,81.43
2022-11-29T00:29:36.623Z,81.43
2022-11-29T00:30:12.565Z,81.20
2022-11-29T00:30:44.747Z,81.08
2022-11-29T00:31:18.113Z,81.04
2022-11-29T00:31:52.813Z,80.89
2022-11-29T00:32:24.908Z,81.30
2022-11-29T00:32:57.253Z,81.14
2022-11-29T00:33:31.925Z,80.94
2022-11-29T00:34:04.809Z,81.33
2022-11-29T00:34:39.870Z,81.11
2022-11-29T00:35:12.387Z,81.36
2022-11-29T00:35:44.481Z,80.87
2022-11-29T00:36:19.419Z,81.23
2022-11-29T00:36:51.571Z,80.98
2022-11-29T00:37:23.711Z,81.16
2022-11-29T00:37:58.426Z,80.93
2022-11-29T00:38:30.592Z,80.93
2022-11-29T00:39:03.419Z,81.21
2022-11-29T00:39:38.091Z,81.12
2022-11-29T00:40:10.997Z,80.87
2022-11-29T00:40:43.114Z,80.68
2022-11-29T00:41:15.270Z,81.04
2022-11-29T00:41:49.934Z,80.78
2022-11-29T00:42:22.016Z,80.92
2022-11-29T00:42:56.673Z,80.73
2022-11-29T00:43:28.812Z,80.80
2022-11-29T00:44:03.745Z,80.98
2022-11-29T00:44:35.872Z,81.19
2022-11-29T00:45:09.571Z,81.14
2022-11-29T00:45:44.336Z,81.09
2022-11-29T00:46:16.600Z,81.13
2022-11-29T00:46:49.534Z,81.25
2022-11-29T00:47:24.185Z,80.99
2022-11-29T00:47:56.294Z,81.09
2022-11-29T00:48:28.457Z,80.86
2022-11-29T00:49:03.393Z,80.87
2022-11-29T00:49:35.520Z,81.21
2022-11-29T00:50:08.423Z,81.12
2022-11-29T00:50:43.159Z,81.15
2022-11-29T00:51:15.299Z,81.05
2022-11-29T00:51:47.515Z,81.14
2022-11-29T00:52:22.241Z,81.02
2022-11-29T00:52:54.306Z,81.15
2022-11-29T00:53:26.374Z,81.34
2022-11-29T00:53:58.477Z,81.11
2022-11-29T00:54:33.243Z,80.98
2022-11-29T00:55:06.555Z,81.37
2022-11-29T00:55:38.637Z,81.39
2022-11-29T00:56:11.155Z,81.06
2022-11-29T00:56:45.838Z,81.20
2022-11-29T00:57:17.964Z,81.12
2022-11-29T00:57:50.050Z,81.32
2022-11-29T00:58:27.543Z,80.89
2022-11-29T00:58:59.649Z,81.13
2022-11-29T00:59:34.314Z,80.91
2022-11-29T01:00:09.474Z,80.90
2022-11-29T01:00:42.391Z,81.15
2022-11-29T01:01:17.309Z,80.92
2022-11-29T01:01:49.559Z,81.14
2022-11-29T01:02:24.414Z,81.38
2022-11-29T01:02:56.696Z,81.20
2022-11-29T01:03:28.784Z,81.56
2022-11-29T01:04:04.609Z,81.31
2022-11-29T01:04:36.702Z,81.25
2022-11-29T01:05:09.376Z,81.36
2022-11-29T01:05:44.202Z,81.22
2022-11-29T01:06:18.789Z,81.59
2022-11-29T01:06:51.193Z,81.37
2022-11-29T01:07:25.897Z,81.58
2022-11-29T01:07:58.174Z,81.81
2022-11-29T01:08:30.326Z,81.89
2022-11-29T01:09:05.066Z,81.56
2022-11-29T01:09:37.180Z,81.40
2022-11-29T01:10:10.261Z,81.41
2022-11-29T01:10:45.033Z,81.25
2022-11-29T01:11:19.891Z,81.32
2022-11-29T01:11:52.085Z,81.56
2022-11-29T01:12:26.772Z,81.36
2022-11-29T01:12:58.877Z,81.10
2022-11-29T01:13:33.836Z,81.18
2022-11-29T01:14:08.513Z,80.94
2022-11-29T01:14:40.582Z,81.03
2022-11-29T01:15:13.320Z,80.85
2022-11-29T01:15:47.957Z,81.01
2022-11-29T01:16:20.534Z,81.32
2022-11-29T01:16:55.337Z,81.31
2022-11-29T01:17:27.441Z,81.22
2022-11-29T01:17:59.913Z,81.04
2022-11-29T01:18:32.562Z,81.41
2022-11-29T01:19:07.828Z,81.53
2022-11-29T01:19:39.929Z,81.50
2022-11-29T01:20:13.666Z,81.40
2022-11-29T01:20:45.789Z,81.56
2022-11-29T01:21:22.920Z,81.14
2022-11-29T01:21:55.061Z,80.95
2022-11-29T01:22:27.206Z,81.29
2022-11-29T01:23:02.038Z,81.29
2022-11-29T01:23:35.918Z,81.64
2022-11-29T01:24:10.698Z,81.59
2022-11-29T01:24:43.080Z,81.84
2022-11-29T01:25:15.797Z,81.60
2022-11-29T01:25:56.805Z,81.69
2022-11-29T01:26:33.621Z,81.18
2022-11-29T01:27:05.759Z,81.67
2022-11-29T01:27:37.885Z,81.32
2022-11-29T01:28:09.933Z,81.59
2022-11-29T01:28:49.125Z,81.15
2022-11-29T01:29:21.192Z,81.11
2022-11-29T01:29:53.283Z,81.22
2022-11-29T01:30:28.367Z,81.75
2022-11-29T01:31:05.918Z,81.32
2022-11-29T01:31:40.684Z,81.41
2022-11-29T01:32:12.816Z,81.63
2022-11-29T01:32:44.937Z,81.69
2022-11-29T01:33:17.004Z,81.85
2022-11-29T01:33:51.858Z,81.75
2022-11-29T01:34:23.906Z,81.82
2022-11-29T01:34:55.966Z,81.95
2022-11-29T01:35:30.728Z,82.04
2022-11-29T01:36:03.813Z,82.17
2022-11-29T01:36:36.008Z,81.99
2022-11-29T01:37:10.702Z,81.86
2022-11-29T01:37:42.789Z,81.82
2022-11-29T01:38:14.910Z,82.01
2022-11-29T01:38:49.633Z,81.68
2022-11-29T01:39:21.705Z,81.38
2022-11-29T01:39:53.789Z,81.53
2022-11-29T01:40:28.451Z,81.28
2022-11-29T01:41:03.586Z,81.61
2022-11-29T01:41:37.559Z,81.78
2022-11-29T01:42:13.477Z,81.43
2022-11-29T01:42:45.530Z,81.48
2022-11-29T01:43:18.525Z,81.74
2022-11-29T01:44:03.483Z,81.75
2022-11-29T01:45:06.142Z,81.76
2022-11-29T01:45:41.415Z,81.30
2022-11-29T01:46:13.566Z,81.37
2022-11-29T01:46:47.578Z,81.28
2022-11-29T01:47:22.322Z,81.01
2022-11-29T01:47:58.150Z,81.13
2022-11-29T01:48:33.518Z,81.43
2022-11-29T01:49:12.297Z,81.35
2022-11-29T01:49:47.696Z,80.65
2022-11-29T01:50:21.167Z,80.77
2022-11-29T01:50:58.018Z,81.15
2022-11-29T01:51:31.813Z,81.21
2022-11-29T01:52:06.766Z,81.01
2022-11-29T01:52:41.967Z,81.19
2022-11-29T01:53:15.090Z,80.97
2022-11-29T01:53:47.323Z,81.04
2022-11-29T01:54:23.718Z,81.22
2022-11-29T01:54:58.644Z,81.36
2022-11-29T01:55:31.291Z,81.19
2022-11-29T01:56:07.905Z,81.32
2022-11-29T01:56:40.470Z,81.32
2022-11-29T01:57:13.635Z,80.99
2022-11-29T01:57:48.437Z,80.98
2022-11-29T01:58:21.079Z,81.13
2022-11-29T01:58:53.273Z,81.08
2022-11-29T01:59:32.478Z,80.82
2022-11-29T02:00:09.002Z,80.96
2022-11-29T02:00:47.422Z,81.00
2022-11-29T02:01:22.303Z,81.03
2022-11-29T02:02:00.581Z,81.09
2022-11-29T02:02:37.075Z,81.16
2022-11-29T02:03:14.073Z,80.69
2022-11-29T02:03:46.339Z,80.87
2022-11-29T02:04:19.516Z,80.86
2022-11-29T02:04:51.813Z,80.84
2022-11-29T02:05:28.065Z,80.58
2022-11-29T02:06:01.725Z,80.95
2022-11-29T02:06:34.497Z,80.53
2022-11-29T02:07:09.154Z,80.52
2022-11-29T02:07:43.473Z,80.74
2022-11-29T02:08:20.577Z,80.78
2022-11-29T02:08:55.262Z,80.63
2022-11-29T02:09:27.405Z,80.36
2022-11-29T02:09:59.792Z,80.51
2022-11-29T02:10:45.403Z,80.38
2022-11-29T02:11:55.073Z,80.08
2022-11-29T02:12:40.594Z,80.24
2022-11-29T02:13:20.570Z,80.46
2022-11-29T02:14:08.392Z,80.64
2022-11-29T02:14:55.489Z,80.46
2022-11-29T02:15:46.130Z,80.42
2022-11-29T02:16:24.885Z,80.29
2022-11-29T02:17:02.620Z,80.48
2022-11-29T02:17:51.111Z,80.32
2022-11-29T02:18:37.237Z,80.39
2022-11-29T02:19:31.845Z,80.27
2022-11-29T02:20:32.828Z,80.34
2022-11-29T02:21:32.685Z,80.61
2022-11-29T02:22:10.823Z,80.61
2022-11-29T02:22:50.625Z,80.59
2022-11-29T02:23:55.104Z,80.27
2022-11-29T02:24:55.726Z,79.77
2022-11-29T02:25:48.959Z,80.44
2022-11-29T02:26:36.578Z,80.45
2022-11-29T02:27:38.098Z,80.61
2022-11-29T02:28:35.898Z,80.33
2022-11-29T02:29:32.416Z,80.09
2022-11-29T02:30:19.732Z,80.55
2022-11-29T02:31:26.285Z,80.63
2022-11-29T02:32:44.486Z,80.54
2022-11-29T02:33:51.735Z,80.15
2022-11-29T02:34:58.667Z,80.53
2022-11-29T02:35:46.822Z,80.09
2022-11-29T02:36:44.841Z,79.88
2022-11-29T02:37:32.683Z,80.08
2022-11-29T02:38:21.289Z,80.03
2022-11-29T02:39:40.746Z,79.71
2022-11-29T02:40:27.598Z,79.95
2022-11-29T02:41:25.155Z,79.34
2022-11-29T02:42:21.724Z,79.52
2022-11-29T02:43:19.472Z,79.65
2022-11-29T02:44:16.622Z,79.47
2022-11-29T02:45:07.391Z,79.76
2022-11-29T02:45:52.824Z,79.92
2022-11-29T02:47:02.119Z,79.87
2022-11-29T02:47:55.568Z,79.86
2022-11-29T02:48:45.121Z,79.48
2022-11-29T02:49:29.691Z,79.15
2022-11-29T02:50:19.450Z,79.13
2022-11-29T02:51:01.456Z,79.04
2022-11-29T02:51:41.330Z,79.34
2022-11-29T02:52:20.857Z,79.10
2022-11-29T02:53:05.858Z,79.02
2022-11-29T02:53:44.191Z,79.18
2022-11-29T02:54:24.102Z,79.05
2022-11-29T02:55:07.376Z,79.36
2022-11-29T02:55:47.649Z,79.34
2022-11-29T02:56:28.466Z,79.20
2022-11-29T02:57:10.059Z,78.78
2022-11-29T02:57:50.613Z,78.91
2022-11-29T02:58:27.987Z,78.49
2022-11-29T02:59:12.271Z,78.47
2022-11-29T02:59:53.437Z,78.70
2022-11-29T03:00:26.169Z,78.56
2022-11-29T03:01:08.940Z,78.40
2022-11-29T03:01:52.483Z,78.10
2022-11-29T03:02:37.302Z,78.59
2022-11-29T03:03:20.547Z,78.51
2022-11-29T03:04:02.782Z,78.62
2022-11-29T03:04:46.010Z,78.76
2022-11-29T03:05:24.809Z,78.56
2022-11-29T03:06:06.497Z,78.65
2022-11-29T03:06:49.434Z,78.56
2022-11-29T03:07:27.508Z,78.60
2022-11-29T03:08:08.839Z,78.58
2022-11-29T03:08:51.442Z,78.23
2022-11-29T03:09:32.784Z,77.97
2022-11-29T03:10:09.927Z,77.61
2022-11-29T03:10:55.290Z,78.28
2022-11-29T03:11:33.013Z,77.89
2022-11-29T03:12:16.513Z,78.43
2022-11-29T03:12:54.274Z,78.32
2022-11-29T03:13:38.234Z,77.94
2022-11-29T03:14:17.437Z,77.91
2022-11-29T03:15:00.295Z,78.35
2022-11-29T03:15:37.609Z,78.04
2022-11-29T03:16:19.232Z,77.80
2022-11-29T03:17:02.803Z,77.87
2022-11-29T03:17:47.894Z,78.41
2022-11-29T03:18:34.597Z,78.31
2022-11-29T03:19:31.507Z,78.25
2022-11-29T03:20:26.408Z,78.43
2022-11-29T03:21:12.687Z,77.96
2022-11-29T03:21:53.289Z,78.11
2022-11-29T03:22:39.961Z,77.90
2022-11-29T03:23:24.848Z,78.16
2022-11-29T03:24:01.423Z,78.13
2022-11-29T03:24:40.169Z,77.89
2022-11-29T03:25:22.322Z,77.70
2022-11-29T03:26:01.489Z,77.95
2022-11-29T03:26:41.654Z,77.95
2022-11-29T03:27:24.125Z,78.10
2022-11-29T03:28:01.450Z,77.81
2022-11-29T03:28:39.642Z,77.77
2022-11-29T03:29:22.303Z,77.73
2022-11-29T03:29:58.884Z,78.06
2022-11-29T03:30:34.690Z,77.87
2022-11-29T03:31:15.987Z,77.87
2022-11-29T03:31:54.445Z,77.58
2022-11-29T03:32:34.265Z,77.40
2022-11-29T03:33:15.780Z,76.95
2022-11-29T03:33:58.253Z,77.51
2022-11-29T03:34:48.609Z,77.48
2022-11-29T03:35:29.888Z,77.69
2022-11-29T03:36:08.231Z,77.78
2022-11-29T03:36:51.279Z,77.61
2022-11-29T03:37:29.813Z,78.00
2022-11-29T03:38:09.681Z,77.95
2022-11-29T03:38:47.334Z,77.75
2022-11-29T03:39:25.052Z,77.55
2022-11-29T03:40:08.853Z,77.25
2022-11-29T03:40:50.412Z,77.54
2022-11-29T03:41:27.787Z,77.37
2022-11-29T03:42:06.414Z,77.58
2022-11-29T03:42:44.339Z,77.36
2022-11-29T03:43:25.431Z,77.04
2022-11-29T03:44:04.348Z,77.18
2022-11-29T03:44:44.693Z,77.18
2022-11-29T03:45:22.172Z,77.53
2022-11-29T03:46:00.715Z,77.19
2022-11-29T03:46:40.790Z,77.55
2022-11-29T03:47:15.532Z,78.01
2022-11-29T03:47:54.978Z,77.62
2022-11-29T03:48:34.353Z,77.85
2022-11-29T03:49:13.881Z,78.04
2022-11-29T03:49:49.869Z,77.80
2022-11-29T03:50:28.826Z,77.48
2022-11-29T03:51:05.901Z,77.97
2022-11-29T03:51:59.210Z,77.48
2022-11-29T03:52:41.011Z,77.07
2022-11-29T03:53:20.193Z,77.33
2022-11-29T03:53:57.613Z,77.34
2022-11-29T03:54:37.952Z,77.72
2022-11-29T03:55:19.697Z,77.71
2022-11-29T03:55:57.728Z,77.84
2022-11-29T03:56:32.464Z,77.95
2022-11-29T03:57:05.300Z,77.79
2022-11-29T03:57:52.495Z,77.46
2022-11-29T03:58:41.159Z,77.68
2022-11-29T03:59:29.327Z,77.18
2022-11-29T04:00:06.896Z,77.63
2022-11-29T04:01:18.059Z,77.61
2022-11-29T04:02:19.893Z,77.77
2022-11-29T04:03:34.493Z,78.06
2022-11-29T04:04:34.798Z,77.87
2022-11-29T04:05:22.387Z,78.10
2022-11-29T04:06:24.410Z,77.75
2022-11-29T04:07:14.776Z,77.85
2022-11-29T04:08:10.828Z,78.22
2022-11-29T04:09:04.794Z,77.91
2022-11-29T04:09:53.473Z,77.79
2022-11-29T04:10:48.625Z,77.98
2022-11-29T04:12:01.545Z,77.61
2022-11-29T04:13:02.901Z,77.65
2022-11-29T04:13:59.361Z,77.90
2022-11-29T04:14:56.298Z,77.56
2022-11-29T04:15:52.800Z,77.46
2022-11-29T04:17:00.400Z,77.61
2022-11-29T04:18:09.195Z,77.50
2022-11-29T04:19:06.713Z,78.12
2022-11-29T04:20:09.500Z,77.90
2022-11-29T04:21:26.415Z,77.89
2022-11-29T04:22:30.582Z,78.07
2022-11-29T04:23:41.145Z,77.91
2022-11-29T04:24:39.021Z,77.46
2022-11-29T04:25:34.846Z,77.62
2022-11-29T04:26:34.877Z,77.71
2022-11-29T04:27:29.265Z,77.46
2022-11-29T04:28:23.191Z,77.49
2022-11-29T04:29:24.530Z,77.60
2022-11-29T04:30:09.494Z,77.49
2022-11-29T04:30:53.308Z,76.95
2022-11-29T04:31:40.780Z,76.99
2022-11-29T04:32:28.990Z,77.24
2022-11-29T04:33:30.365Z,77.59
2022-11-29T04:34:44.813Z,77.10
2022-11-29T04:35:36.698Z,77.27
2022-11-29T04:36:46.718Z,77.04
2022-11-29T04:37:51.937Z,77.32
2022-11-29T04:38:53.835Z,77.44
2022-11-29T04:40:04.122Z,77.37
2022-11-29T04:40:56.131Z,77.03
2022-11-29T04:42:04.081Z,77.56
2022-11-29T04:43:08.781Z,77.75
2022-11-29T04:44:13.804Z,77.59
2022-11-29T04:45:03.006Z,77.37
2022-11-29T04:46:08.270Z,77.57
2022-11-29T04:46:57.999Z,77.67
2022-11-29T04:47:51.092Z,77.82
2022-11-29T04:48:40.048Z,77.83
2022-11-29T04:49:32.960Z,77.67
2022-11-29T04:50:25.859Z,77.39
2022-11-29T04:51:15.843Z,77.41
2022-11-29T04:52:05.060Z,77.68
2022-11-29T04:52:50.426Z,77.45
2022-11-29T04:53:32.973Z,77.09
2022-11-29T04:54:16.906Z,77.51
2022-11-29T04:54:56.967Z,77.52
2022-11-29T04:55:42.817Z,77.17
2022-11-29T04:56:23.373Z,77.46
2022-11-29T04:57:01.987Z,77.11
2022-11-29T04:57:42.860Z,76.97
2022-11-29T04:58:23.945Z,77.40
2022-11-29T04:59:06.991Z,77.59
2022-11-29T04:59:44.821Z,77.08
2022-11-29T05:00:20.611Z,77.28
2022-11-29T05:01:04.884Z,77.16
2022-11-29T05:01:48.180Z,77.16
2022-11-29T05:02:32.673Z,77.33
2022-11-29T05:03:14.513Z,77.58
2022-11-29T05:03:57.031Z,77.63
2022-11-29T05:04:43.929Z,77.66
2022-11-29T05:05:27.433Z,77.32
2022-11-29T05:06:19.363Z,76.98
2022-11-29T05:07:02.920Z,77.45
2022-11-29T05:07:47.507Z,77.62
2022-11-29T05:08:29.579Z,77.27
2022-11-29T05:09:18.213Z,77.15
2022-11-29T05:09:59.633Z,77.46
2022-11-29T05:10:39.566Z,77.29
2022-11-29T05:11:26.483Z,77.22
2022-11-29T05:12:08.152Z,77.66
2022-11-29T05:12:51.870Z,77.26
2022-11-29T05:13:37.130Z,77.63
2022-11-29T05:14:16.889Z,77.41
2022-11-29T05:15:20.273Z,77.23
2022-11-29T07:29:13.957Z,79.87
2022-11-29T07:29:58.606Z,80.20
2022-11-29T07:30:40.077Z,80.30
2022-11-29T07:31:22.441Z,79.77
2022-11-29T07:32:06.577Z,79.89
2022-11-29T07:32:52.105Z,79.77
2022-11-29T07:33:37.103Z,79.58
2022-11-29T07:34:18.478Z,79.66
2022-11-29T07:35:03.903Z,79.84
2022-11-29T07:35:46.057Z,79.81
2022-11-29T07:36:28.674Z,80.14
2022-11-29T07:37:08.062Z,79.62
2022-11-29T07:37:53.517Z,79.87
2022-11-29T07:38:45.301Z,79.82
2022-11-29T07:39:28.258Z,79.70
2022-11-29T07:40:06.695Z,79.85
2022-11-29T07:40:48.871Z,79.63
2022-11-29T07:41:27.442Z,79.57
2022-11-29T07:42:08.718Z,79.40
2022-11-29T07:42:55.087Z,79.17
2022-11-29T07:43:44.013Z,79.18
2022-11-29T07:44:27.078Z,79.38
2022-11-29T07:45:12.212Z,79.64
2022-11-29T07:45:44.359Z,79.40
2022-11-29T07:46:16.505Z,79.26
2022-11-29T07:46:51.280Z,78.79
2022-11-29T07:47:23.394Z,78.79
2022-11-29T07:47:55.972Z,79.05
2022-11-29T07:48:30.656Z,79.21
2022-11-29T07:49:02.796Z,79.28
2022-11-29T07:49:34.894Z,78.74
2022-11-29T07:50:11.010Z,78.71
2022-11-29T07:50:43.985Z,78.97
2022-11-29T07:51:16.081Z,78.69
2022-11-29T07:51:51.061Z,78.76
2022-11-29T07:52:23.197Z,78.46
2022-11-29T07:52:56.180Z,78.50
2022-11-29T07:53:31.666Z,78.68
2022-11-29T07:54:04.729Z,78.63
2022-11-29T07:54:36.803Z,79.02
2022-11-29T07:55:18.900Z,78.60
2022-11-29T07:55:51.628Z,78.77
2022-11-29T07:56:23.725Z,78.84
2022-11-29T07:56:58.424Z,79.14
2022-11-29T07:57:30.513Z,79.23
2022-11-29T07:58:02.696Z,79.00
2022-11-29T07:58:37.429Z,79.44
2022-11-29T07:59:12.941Z,79.22
2022-11-29T07:59:50.215Z,78.94
2022-11-29T08:00:23.333Z,79.28
2022-11-29T08:00:58.068Z,79.48
2022-11-29T08:01:31.510Z,79.09
2022-11-29T08:02:11.472Z,79.28
2022-11-29T08:02:44.179Z,79.15
2022-11-29T08:03:18.958Z,79.46
2022-11-29T08:03:51.064Z,78.83
2022-11-29T08:04:25.969Z,79.14
2022-11-29T08:04:58.731Z,79.51
2022-11-29T08:05:30.873Z,79.40
2022-11-29T08:06:05.768Z,79.25
2022-11-29T08:06:38.115Z,79.10
2022-11-29T08:07:13.257Z,79.02
2022-11-29T08:07:46.497Z,79.09
2022-11-29T08:08:21.407Z,79.08
2022-11-29T08:08:53.579Z,79.12
2022-11-29T08:09:25.684Z,79.19
2022-11-29T08:10:00.396Z,79.30
2022-11-29T08:10:32.983Z,78.98
2022-11-29T08:11:13.211Z,78.64
2022-11-29T08:11:45.289Z,78.86
2022-11-29T08:12:20.002Z,78.66
2022-11-29T08:12:52.228Z,78.95
2022-11-29T08:13:27.036Z,78.66
2022-11-29T08:14:00.357Z,78.70
2022-11-29T08:14:32.810Z,79.16
2022-11-29T08:15:12.077Z,79.00
2022-11-29T08:15:45.416Z,79.31
2022-11-29T08:16:20.900Z,78.95
2022-11-29T08:16:53.070Z,78.65
2022-11-29T08:17:27.783Z,78.73
2022-11-29T08:17:59.861Z,78.67
2022-11-29T08:18:32.032Z,79.21
2022-11-29T08:19:07.005Z,79.01
2022-11-29T08:19:39.106Z,78.90
2022-11-29T08:20:16.516Z,78.55
2022-11-29T08:20:49.242Z,78.66
2022-11-29T08:21:23.990Z,78.85
2022-11-29T08:21:56.175Z,78.81
2022-11-29T08:22:30.859Z,78.86
2022-11-29T08:23:03.495Z,79.06
2022-11-29T08:23:38.619Z,79.04
2022-11-29T08:24:10.980Z,78.80
2022-11-29T08:24:45.949Z,78.71
2022-11-29T08:25:18.314Z,78.61
2022-11-29T08:25:53.018Z,78.53
2022-11-29T08:26:31.079Z,78.52
2022-11-29T08:27:06.370Z,78.48
2022-11-29T08:27:39.428Z,78.55
2022-11-29T08:28:11.558Z,78.52
2022-11-29T08:28:46.577Z,78.35
2022-11-29T08:29:18.913Z,78.52
2022-11-29T08:29:53.585Z,78.48
2022-11-29T08:30:28.251Z,77.90
2022-11-29T08:31:01.918Z,78.05
2022-11-29T08:31:36.669Z,78.31
2022-11-29T08:32:09.212Z,78.14
2022-11-29T08:32:41.274Z,78.09
2022-11-29T08:33:15.955Z,77.75
2022-11-29T08:33:48.263Z,78.14
2022-11-29T08:34:23.032Z,78.04
2022-11-29T08:34:55.109Z,77.85
2022-11-29T08:35:27.201Z,77.75
2022-11-29T08:36:07.659Z,77.51
2022-11-29T08:36:39.524Z,77.58
2022-11-29T08:37:11.916Z,77.53
2022-11-29T08:37:46.776Z,77.49
2022-11-29T08:38:18.862Z,77.67
2022-11-29T08:39:00.085Z,77.62
2022-11-29T08:39:34.473Z,77.63
2022-11-29T08:40:10.573Z,77.73
2022-11-29T08:40:45.245Z,77.02
2022-11-29T08:41:17.794Z,77.00
2022-11-29T08:41:52.577Z,77.09
2022-11-29T08:42:24.634Z,76.90
2022-11-29T08:42:57.990Z,77.21
2022-11-29T08:43:33.565Z,77.02
2022-11-29T08:44:05.950Z,76.92
2022-11-29T08:44:40.808Z,77.30
2022-11-29T08:45:13.382Z,77.02
2022-11-29T08:45:54.468Z,77.27
2022-11-29T08:46:46.966Z,77.39
2022-11-29T08:47:34.130Z,77.38
2022-11-29T08:48:09.672Z,77.34
2022-11-29T08:48:42.037Z,77.17
2022-11-29T08:49:14.182Z,77.40
2022-11-29T08:50:07.210Z,76.91
2022-11-29T08:50:41.973Z,77.18
2022-11-29T08:51:14.609Z,77.12
2022-11-29T08:51:46.685Z,77.08
2022-11-29T08:52:33.798Z,76.74
2022-11-29T08:53:20.883Z,76.79
2022-11-29T08:53:55.580Z,76.99
2022-11-29T08:54:27.785Z,76.94
2022-11-29T08:55:03.280Z,77.00
2022-11-29T08:55:40.685Z,76.54
2022-11-29T08:57:04.471Z,76.91
2022-11-29T08:58:05.725Z,76.31
2022-11-29T08:58:38.608Z,76.35
2022-11-29T08:59:13.534Z,76.27
2022-11-29T08:59:46.087Z,76.54
2022-11-29T09:00:19.411Z,76.51
2022-11-29T09:00:56.852Z,76.41
2022-11-29T09:01:29.407Z,76.43
2022-11-29T09:02:01.798Z,76.32
2022-11-29T09:02:36.625Z,76.57
2022-11-29T09:03:23.871Z,76.68
2022-11-29T09:04:07.721Z,77.02
2022-11-29T09:04:42.427Z,76.71
2022-11-29T09:05:15.314Z,76.69
2022-11-29T09:05:50.268Z,76.61
2022-11-29T09:06:22.381Z,76.74
2022-11-29T09:06:57.058Z,76.65
2022-11-29T09:07:29.164Z,76.64
2022-11-29T09:08:03.929Z,76.71
2022-11-29T09:08:36.001Z,76.35
2022-11-29T09:09:10.695Z,76.40
2022-11-29T09:09:42.755Z,76.47
2022-11-29T09:10:17.573Z,76.41
2022-11-29T09:10:49.669Z,76.38
2022-11-29T09:11:25.549Z,76.31
2022-11-29T09:11:57.714Z,76.32
2022-11-29T09:12:29.783Z,76.00
2022-11-29T09:13:04.455Z,76.14
2022-11-29T09:13:36.527Z,76.23
2022-11-29T09:14:14.642Z,75.96
2022-11-29T09:14:46.942Z,75.94
2022-11-29T09:15:21.990Z,75.53
2022-11-29T09:15:57.640Z,76.01
2022-11-29T09:16:33.791Z,75.74
2022-11-29T09:17:06.042Z,76.15
2022-11-29T09:17:40.724Z,76.19
2022-11-29T09:18:12.825Z,76.29
2022-11-29T09:18:51.291Z,76.04
2022-11-29T09:19:26.585Z,76.30
2022-11-29T09:19:58.661Z,76.17
2022-11-29T09:20:30.788Z,76.64
2022-11-29T09:21:09.070Z,76.08
2022-11-29T09:21:41.137Z,76.68
2022-11-29T09:22:15.877Z,76.45
2022-11-29T09:22:47.945Z,76.24
2022-11-29T09:23:22.603Z,76.36
2022-11-29T09:23:58.924Z,76.13
2022-11-29T09:24:33.865Z,76.01
2022-11-29T09:25:07.117Z,76.05
2022-11-29T09:25:39.355Z,76.29
2022-11-29T09:26:18.920Z,75.85
2022-11-29T09:26:51.006Z,76.42
2022-11-29T09:27:25.784Z,76.13
2022-11-29T09:28:01.371Z,76.41
2022-11-29T09:28:34.507Z,76.27
2022-11-29T09:29:09.826Z,76.26
2022-11-29T09:29:41.959Z,76.55
2022-11-29T09:30:16.999Z,76.37
2022-11-29T09:30:55.300Z,76.56
2022-11-29T09:31:31.466Z,76.51
2022-11-29T09:32:06.327Z,76.42
2022-11-29T09:32:38.496Z,76.20
2022-11-29T09:33:10.590Z,76.38
2022-11-29T09:33:45.698Z,76.22
2022-11-29T09:34:18.767Z,76.37
2022-11-29T09:34:53.487Z,76.07
2022-11-29T09:35:25.706Z,76.20
2022-11-29T09:35:58.198Z,76.09
2022-11-29T09:36:33.339Z,75.97
2022-11-29T09:37:05.819Z,75.72
2022-11-29T09:37:37.958Z,75.87
2022-11-29T09:38:14.632Z,75.89
2022-11-29T09:38:46.857Z,75.94
2022-11-29T09:39:21.794Z,76.06
2022-11-29T09:39:53.869Z,76.37
2022-11-29T09:40:36.483Z,76.19
2022-11-29T09:41:32.778Z,75.63
2022-11-29T09:42:42.430Z,76.02
2022-11-29T09:43:22.325Z,76.12
2022-11-29T09:44:07.525Z,76.28
2022-11-29T09:44:51.423Z,76.32
2022-11-29T09:45:32.921Z,76.06
2022-11-29T09:46:18.309Z,75.87
2022-11-29T09:47:04.961Z,75.95
2022-11-29T09:48:16.353Z,75.88
2022-11-29T09:49:13.838Z,76.15
2022-11-29T09:49:57.511Z,76.12
2022-11-29T09:50:36.950Z,76.60
2022-11-29T09:51:18.277Z,76.46
2022-11-29T09:51:57.963Z,76.34
2022-11-29T09:52:41.078Z,76.09
2022-11-29T09:53:30.143Z,76.41
2022-11-29T09:54:18.024Z,76.51
2022-11-29T09:55:00.122Z,75.63
2022-11-29T09:55:49.802Z,75.47
2022-11-29T09:56:31.684Z,75.67
2022-11-29T09:57:10.531Z,75.50
2022-11-29T09:57:46.806Z,75.66
2022-11-29T09:58:23.104Z,75.36
2022-11-29T09:59:01.658Z,75.46
2022-11-29T09:59:37.802Z,75.55
2022-11-29T10:00:20.530Z,75.88
2022-11-29T10:00:56.714Z,75.84
2022-11-29T10:01:36.837Z,75.98
2022-11-29T10:02:21.381Z,75.81
2022-11-29T10:03:03.570Z,75.67
2022-11-29T10:03:41.165Z,75.84
2022-11-29T10:04:21.349Z,75.72
2022-11-29T10:04:59.241Z,75.54
2022-11-29T10:05:38.968Z,75.11
2022-11-29T10:06:24.731Z,75.44
2022-11-29T10:07:02.857Z,75.41
2022-11-29T10:07:44.158Z,75.49
2022-11-29T10:08:24.210Z,75.39
2022-11-29T10:09:04.593Z,75.16
2022-11-29T10:09:39.256Z,75.55
2022-11-29T10:10:21.405Z,75.41
2022-11-29T10:10:57.639Z,75.34
2022-11-29T10:11:38.725Z,75.60
2022-11-29T10:12:17.427Z,75.30
2022-11-29T10:12:56.401Z,75.38
2022-11-29T10:13:34.452Z,75.40
2022-11-29T10:14:15.925Z,75.45
2022-11-29T10:14:57.419Z,75.61
2022-11-29T10:15:35.736Z,75.71
2022-11-29T10:16:14.506Z,75.58
2022-11-29T10:16:55.551Z,75.98
2022-11-29T10:17:37.246Z,75.94
2022-11-29T10:18:19.679Z,75.63
2022-11-29T10:18:58.752Z,75.87
2022-11-29T10:19:39.337Z,75.97
2022-11-29T10:20:15.663Z,75.70
2022-11-29T10:20:53.429Z,75.64
2022-11-29T10:21:29.767Z,75.61
2022-11-29T10:22:08.881Z,75.59
2022-11-29T10:22:49.590Z,75.48
2022-11-29T10:23:30.243Z,75.78
2022-11-29T10:24:10.083Z,75.91
2022-11-29T10:24:48.111Z,75.78
2022-11-29T10:25:24.660Z,75.52
2022-11-29T10:26:00.914Z,75.73
2022-11-29T10:26:35.454Z,75.86
2022-11-29T10:27:17.079Z,75.76
2022-11-29T10:27:49.396Z,75.45
2022-11-29T10:28:27.552Z,75.51
2022-11-29T10:29:00.152Z,75.28
2022-11-29T10:29:34.822Z,75.27
2022-11-29T10:30:14.386Z,75.28
2022-11-29T10:30:49.500Z,75.12
2022-11-29T10:31:25.369Z,75.43
2022-11-29T10:32:10.060Z,75.39
2022-11-29T10:32:49.033Z,75.27
2022-11-29T10:33:27.085Z,75.14
2022-11-29T10:34:01.684Z,74.65
2022-11-29T10:34:36.813Z,74.71
2022-11-29T10:35:13.479Z,74.90
2022-11-29T10:35:48.819Z,74.52
2022-11-29T10:36:27.857Z,74.10
2022-11-29T10:37:03.389Z,74.42
2022-11-29T10:37:35.734Z,74.20
2022-11-29T10:38:30.796Z,74.39
2022-11-29T10:39:14.463Z,74.76
2022-11-29T10:39:52.007Z,74.92
2022-11-29T10:40:32.718Z,74.89
2022-11-29T10:41:12.338Z,74.49
2022-11-29T10:41:44.474Z,74.46